الصفحة الرئيسية
METAR-TAF:

METAR-TAF

مطار :

مطار كرابي

كرابي, تايلاند

دائرة عرض: 08-06-03N, خط طول: 098-59-05E, ارتفاع: 25 متر

مراقبة الطقس الحالي

تاريخ ووقت الإصدار 16 دقيقة قبل الساعة 21:00UTC
ريح 3 عقدة من الجنوب الغربي, الاتجاه يتراوح بين الجنوب/الجنوب الغربي و الغرب
درجة الحرارة 26°درجة مئوية
الرطوبة 94%
ضغط 1009 hPa
الرؤية 10 كم أو أكثر
غيوم قليلة على ارتفاع 2000 قدم
غيوم متفرقة على ارتفاع 10000 قدم

METAR: VTSG 252100Z 22003KT 200V270 9999 FEW020 SCT100 26/25 Q1009 NOSIG

زمن: 04:16 (21:16 UTC)

توقعات

تاريخ ووقت الإصدار 4ساعات و 16 دقيقة قبل الساعة 17:00UTC
التوقعات صالحة من25 الساعة 18 UTC إلى 26 الساعة 18 UTC
ريح عقدة من الشمال
الرؤية 10 كم أو أكثر
غيوم متفرقة على ارتفاع 2000 قدم
أصبح
من 26 الساعة 00 UTC إلى 26 الساعة 02 UTC
ريح 8 عقدة من الغرب
أصبح
من 26 الساعة 14 UTC إلى 26 الساعة 16 UTC
ريح عقدة من الشمال

TAF: VTSG 251700Z 2518/2618 00000KT 9999 SCT020 BECMG 2600/2602 28008KT BECMG 2614/2616 00000KT

أرصاد الطقس والتوقعات من أكثر من 4000 مطار (تقارير الطقس للمطار METAR والتنبؤ بالطقس بالمطارTAF).

المحطات المتاحة هي النقط الصفراء والحمراء على الخريطة.

حرك المؤشر فوق النقطة لمعرفة اسم المحطة.

ثم انقر لمعرفة أرصاد وتوقعات الطقس.

لتغيير الخارطة: اضغط على الأزرار الخضراء مع رمز الصليب الأسود للتكبير. على الزر الأخضر مع شرطة للتصغير، أو على الأسهم الخضراء للخرائط المجاورة.


METAR-TAF: